sensor_id;sensor_type;location;lat;lon;timestamp;P1;durP1;ratioP1;P2;durP2;ratioP2
14665;SDS011;7420;53.574;10.040;2023-04-25T00:00:13;6.95;;;5.15;;
14665;SDS011;7420;53.574;10.040;2023-04-25T00:02:39;9.88;;;5.25;;
14665;SDS011;7420;53.574;10.040;2023-04-25T00:05:04;7.68;;;5.35;;
14665;SDS011;7420;53.574;10.040;2023-04-25T00:07:30;7.10;;;4.78;;
14665;SDS011;7420;53.574;10.040;2023-04-25T00:09:57;9.00;;;5.60;;
14665;SDS011;7420;53.574;10.040;2023-04-25T00:12:22;12.45;;;5.60;;
14665;SDS011;7420;53.574;10.040;2023-04-25T00:14:48;10.05;;;4.78;;
14665;SDS011;7420;53.574;10.040;2023-04-25T00:17:14;13.52;;;5.30;;
14665;SDS011;7420;53.574;10.040;2023-04-25T00:19:41;14.55;;;5.63;;
14665;SDS011;7420;53.574;10.040;2023-04-25T00:22:07;9.23;;;5.07;;
14665;SDS011;7420;53.574;10.040;2023-04-25T00:24:32;16.75;;;5.38;;
14665;SDS011;7420;53.574;10.040;2023-04-25T00:26:58;12.38;;;6.25;;
14665;SDS011;7420;53.574;10.040;2023-04-25T00:29:23;12.88;;;5.00;;
14665;SDS011;7420;53.574;10.040;2023-04-25T00:31:48;15.90;;;6.40;;
14665;SDS011;7420;53.574;10.040;2023-04-25T00:34:14;16.35;;;5.13;;
14665;SDS011;7420;53.574;10.040;2023-04-25T00:36:39;16.77;;;4.57;;
14665;SDS011;7420;53.574;10.040;2023-04-25T00:39:04;18.10;;;6.40;;
14665;SDS011;7420;53.574;10.040;2023-04-25T00:41:31;15.57;;;4.95;;
14665;SDS011;7420;53.574;10.040;2023-04-25T00:43:57;14.88;;;5.68;;
14665;SDS011;7420;53.574;10.040;2023-04-25T00:46:24;12.18;;;5.05;;
14665;SDS011;7420;53.574;10.040;2023-04-25T00:48:49;12.10;;;4.20;;
14665;SDS011;7420;53.574;10.040;2023-04-25T00:51:19;12.82;;;5.38;;
14665;SDS011;7420;53.574;10.040;2023-04-25T00:53:45;15.95;;;5.20;;
14665;SDS011;7420;53.574;10.040;2023-04-25T00:56:12;18.30;;;5.32;;
14665;SDS011;7420;53.574;10.040;2023-04-25T00:58:38;20.98;;;5.22;;
14665;SDS011;7420;53.574;10.040;2023-04-25T01:01:03;17.02;;;5.07;;
14665;SDS011;7420;53.574;10.040;2023-04-25T01:03:30;14.00;;;5.18;;
14665;SDS011;7420;53.574;10.040;2023-04-25T01:05:58;13.32;;;5.00;;
14665;SDS011;7420;53.574;10.040;2023-04-25T01:08:24;19.23;;;4.47;;
14665;SDS011;7420;53.574;10.040;2023-04-25T01:10:52;14.93;;;4.82;;
14665;SDS011;7420;53.574;10.040;2023-04-25T01:13:18;13.18;;;4.20;;
14665;SDS011;7420;53.574;10.040;2023-04-25T01:15:43;14.10;;;4.80;;
14665;SDS011;7420;53.574;10.040;2023-04-25T01:18:09;17.73;;;5.28;;
14665;SDS011;7420;53.574;10.040;2023-04-25T01:20:34;15.82;;;4.70;;
14665;SDS011;7420;53.574;10.040;2023-04-25T01:23:03;18.92;;;4.93;;
14665;SDS011;7420;53.574;10.040;2023-04-25T01:25:29;18.35;;;5.75;;
14665;SDS011;7420;53.574;10.040;2023-04-25T01:27:55;20.63;;;5.45;;
14665;SDS011;7420;53.574;10.040;2023-04-25T01:33:18;18.00;;;5.28;;
14665;SDS011;7420;53.574;10.040;2023-04-25T01:35:45;22.67;;;5.88;;
14665;SDS011;7420;53.574;10.040;2023-04-25T01:38:12;15.73;;;5.13;;
14665;SDS011;7420;53.574;10.040;2023-04-25T01:40:38;13.82;;;4.45;;
14665;SDS011;7420;53.574;10.040;2023-04-25T01:43:04;20.02;;;6.38;;
14665;SDS011;7420;53.574;10.040;2023-04-25T01:45:30;14.43;;;4.72;;
14665;SDS011;7420;53.574;10.040;2023-04-25T01:47:55;17.90;;;5.65;;
14665;SDS011;7420;53.574;10.040;2023-04-25T01:50:24;14.77;;;4.97;;
14665;SDS011;7420;53.574;10.040;2023-04-25T01:52:49;26.67;;;7.35;;
14665;SDS011;7420;53.574;10.040;2023-04-25T01:55:15;16.33;;;4.95;;
14665;SDS011;7420;53.574;10.040;2023-04-25T01:57:40;18.98;;;5.93;;
14665;SDS011;7420;53.574;10.040;2023-04-25T02:00:06;14.30;;;5.40;;
14665;SDS011;7420;53.574;10.040;2023-04-25T02:02:34;14.07;;;5.15;;
14665;SDS011;7420;53.574;10.040;2023-04-25T02:04:59;22.33;;;4.82;;
14665;SDS011;7420;53.574;10.040;2023-04-25T02:07:25;19.02;;;4.68;;
14665;SDS011;7420;53.574;10.040;2023-04-25T02:13:13;13.35;;;4.03;;
14665;SDS011;7420;53.574;10.040;2023-04-25T02:15:38;14.38;;;5.05;;
14665;SDS011;7420;53.574;10.040;2023-04-25T02:18:03;15.43;;;5.47;;
14665;SDS011;7420;53.574;10.040;2023-04-25T02:20:31;23.02;;;6.57;;
14665;SDS011;7420;53.574;10.040;2023-04-25T02:22:56;18.17;;;4.47;;
14665;SDS011;7420;53.574;10.040;2023-04-25T02:25:22;17.80;;;5.10;;
14665;SDS011;7420;53.574;10.040;2023-04-25T02:27:47;20.52;;;4.57;;
14665;SDS011;7420;53.574;10.040;2023-04-25T02:30:13;15.63;;;4.97;;
14665;SDS011;7420;53.574;10.040;2023-04-25T02:32:39;13.63;;;5.07;;
14665;SDS011;7420;53.574;10.040;2023-04-25T02:35:05;17.98;;;4.72;;
14665;SDS011;7420;53.574;10.040;2023-04-25T02:37:32;13.90;;;3.97;;
14665;SDS011;7420;53.574;10.040;2023-04-25T02:39:57;14.43;;;4.90;;
14665;SDS011;7420;53.574;10.040;2023-04-25T02:42:23;23.35;;;5.57;;
14665;SDS011;7420;53.574;10.040;2023-04-25T02:44:49;15.32;;;4.80;;
14665;SDS011;7420;53.574;10.040;2023-04-25T02:47:14;17.63;;;5.00;;
14665;SDS011;7420;53.574;10.040;2023-04-25T02:49:40;22.95;;;5.07;;
14665;SDS011;7420;53.574;10.040;2023-04-25T02:52:05;17.08;;;5.38;;
14665;SDS011;7420;53.574;10.040;2023-04-25T02:54:31;17.80;;;5.68;;
14665;SDS011;7420;53.574;10.040;2023-04-25T02:56:56;19.13;;;5.05;;
14665;SDS011;7420;53.574;10.040;2023-04-25T02:59:22;12.05;;;3.88;;
14665;SDS011;7420;53.574;10.040;2023-04-25T03:01:47;20.83;;;4.78;;
14665;SDS011;7420;53.574;10.040;2023-04-25T03:04:12;17.90;;;4.40;;
14665;SDS011;7420;53.574;10.040;2023-04-25T03:06:38;20.42;;;6.00;;
14665;SDS011;7420;53.574;10.040;2023-04-25T03:09:03;16.75;;;4.90;;
14665;SDS011;7420;53.574;10.040;2023-04-25T03:11:28;17.30;;;4.50;;
14665;SDS011;7420;53.574;10.040;2023-04-25T03:13:54;14.75;;;3.78;;
14665;SDS011;7420;53.574;10.040;2023-04-25T03:17:30;13.93;;;4.68;;
14665;SDS011;7420;53.574;10.040;2023-04-25T03:20:59;30.15;;;6.55;;
14665;SDS011;7420;53.574;10.040;2023-04-25T03:27:33;15.88;;;4.55;;
14665;SDS011;7420;53.574;10.040;2023-04-25T03:31:28;13.38;;;5.15;;
14665;SDS011;7420;53.574;10.040;2023-04-25T03:48:13;16.23;;;4.28;;
14665;SDS011;7420;53.574;10.040;2023-04-25T03:50:39;13.43;;;4.28;;
14665;SDS011;7420;53.574;10.040;2023-04-25T03:53:04;15.50;;;3.75;;
14665;SDS011;7420;53.574;10.040;2023-04-25T03:55:29;18.90;;;3.63;;
14665;SDS011;7420;53.574;10.040;2023-04-25T03:57:55;20.50;;;4.90;;
14665;SDS011;7420;53.574;10.040;2023-04-25T04:00:23;18.15;;;4.75;;
14665;SDS011;7420;53.574;10.040;2023-04-25T04:02:48;13.60;;;3.92;;
14665;SDS011;7420;53.574;10.040;2023-04-25T04:05:13;19.77;;;4.15;;
14665;SDS011;7420;53.574;10.040;2023-04-25T04:07:39;14.35;;;3.88;;
14665;SDS011;7420;53.574;10.040;2023-04-25T04:10:08;13.80;;;3.65;;
14665;SDS011;7420;53.574;10.040;2023-04-25T04:12:35;19.20;;;3.85;;
14665;SDS011;7420;53.574;10.040;2023-04-25T04:15:01;13.00;;;4.18;;
14665;SDS011;7420;53.574;10.040;2023-04-25T04:17:28;16.48;;;4.47;;
14665;SDS011;7420;53.574;10.040;2023-04-25T04:19:54;13.77;;;3.63;;
14665;SDS011;7420;53.574;10.040;2023-04-25T04:22:19;13.00;;;4.22;;
14665;SDS011;7420;53.574;10.040;2023-04-25T04:24:45;14.40;;;4.93;;
14665;SDS011;7420;53.574;10.040;2023-04-25T04:27:11;15.65;;;5.03;;
14665;SDS011;7420;53.574;10.040;2023-04-25T04:29:37;9.98;;;4.65;;
14665;SDS011;7420;53.574;10.040;2023-04-25T04:32:03;16.48;;;4.05;;
14665;SDS011;7420;53.574;10.040;2023-04-25T04:34:28;11.23;;;4.25;;
14665;SDS011;7420;53.574;10.040;2023-04-25T04:36:54;14.88;;;3.47;;
14665;SDS011;7420;53.574;10.040;2023-04-25T04:39:20;14.95;;;3.55;;
14665;SDS011;7420;53.574;10.040;2023-04-25T04:41:45;17.55;;;3.80;;
14665;SDS011;7420;53.574;10.040;2023-04-25T04:44:11;15.38;;;4.22;;
14665;SDS011;7420;53.574;10.040;2023-04-25T04:46:37;13.88;;;3.88;;
14665;SDS011;7420;53.574;10.040;2023-04-25T04:49:07;15.75;;;3.97;;
14665;SDS011;7420;53.574;10.040;2023-04-25T04:51:33;19.08;;;4.80;;
14665;SDS011;7420;53.574;10.040;2023-04-25T04:53:59;16.30;;;3.75;;
14665;SDS011;7420;53.574;10.040;2023-04-25T04:56:27;11.70;;;3.30;;
14665;SDS011;7420;53.574;10.040;2023-04-25T04:58:54;13.32;;;3.83;;
14665;SDS011;7420;53.574;10.040;2023-04-25T05:01:20;14.48;;;3.22;;
14665;SDS011;7420;53.574;10.040;2023-04-25T05:03:45;18.65;;;3.78;;
14665;SDS011;7420;53.574;10.040;2023-04-25T05:06:10;14.68;;;3.88;;
14665;SDS011;7420;53.574;10.040;2023-04-25T05:08:36;9.27;;;3.25;;
14665;SDS011;7420;53.574;10.040;2023-04-25T05:11:02;15.45;;;4.07;;
14665;SDS011;7420;53.574;10.040;2023-04-25T05:13:27;17.40;;;3.92;;
14665;SDS011;7420;53.574;10.040;2023-04-25T05:15:52;12.75;;;3.15;;
14665;SDS011;7420;53.574;10.040;2023-04-25T05:18:18;13.93;;;3.63;;
14665;SDS011;7420;53.574;10.040;2023-04-25T05:20:43;15.32;;;3.70;;
14665;SDS011;7420;53.574;10.040;2023-04-25T05:23:08;18.60;;;3.95;;
14665;SDS011;7420;53.574;10.040;2023-04-25T05:25:34;8.65;;;3.90;;
14665;SDS011;7420;53.574;10.040;2023-04-25T05:27:59;11.07;;;4.53;;
14665;SDS011;7420;53.574;10.040;2023-04-25T05:30:25;12.00;;;3.58;;
14665;SDS011;7420;53.574;10.040;2023-04-25T05:32:50;14.73;;;4.55;;
14665;SDS011;7420;53.574;10.040;2023-04-25T05:35:15;14.32;;;4.28;;
14665;SDS011;7420;53.574;10.040;2023-04-25T05:37:41;11.20;;;4.00;;
14665;SDS011;7420;53.574;10.040;2023-04-25T05:40:07;14.23;;;3.63;;
14665;SDS011;7420;53.574;10.040;2023-04-25T05:42:33;14.77;;;4.53;;
14665;SDS011;7420;53.574;10.040;2023-04-25T05:44:59;13.50;;;4.15;;
14665;SDS011;7420;53.574;10.040;2023-04-25T05:47:25;18.00;;;4.88;;
14665;SDS011;7420;53.574;10.040;2023-04-25T05:49:51;6.93;;;2.72;;
14665;SDS011;7420;53.574;10.040;2023-04-25T05:52:16;15.75;;;3.40;;
14665;SDS011;7420;53.574;10.040;2023-04-25T05:54:41;23.67;;;6.10;;
14665;SDS011;7420;53.574;10.040;2023-04-25T05:57:07;15.60;;;4.00;;
14665;SDS011;7420;53.574;10.040;2023-04-25T05:59:32;10.07;;;4.72;;
14665;SDS011;7420;53.574;10.040;2023-04-25T06:01:57;14.35;;;4.07;;
14665;SDS011;7420;53.574;10.040;2023-04-25T06:04:23;16.58;;;3.85;;
14665;SDS011;7420;53.574;10.040;2023-04-25T06:06:48;11.35;;;3.75;;
14665;SDS011;7420;53.574;10.040;2023-04-25T06:09:13;7.05;;;3.55;;
14665;SDS011;7420;53.574;10.040;2023-04-25T06:11:39;24.23;;;5.68;;
14665;SDS011;7420;53.574;10.040;2023-04-25T06:14:05;9.35;;;3.25;;
14665;SDS011;7420;53.574;10.040;2023-04-25T06:16:31;14.68;;;4.43;;
14665;SDS011;7420;53.574;10.040;2023-04-25T06:18:56;12.98;;;3.65;;
14665;SDS011;7420;53.574;10.040;2023-04-25T06:21:21;16.98;;;4.57;;
14665;SDS011;7420;53.574;10.040;2023-04-25T06:23:47;11.18;;;3.35;;
14665;SDS011;7420;53.574;10.040;2023-04-25T06:26:12;7.18;;;2.92;;
14665;SDS011;7420;53.574;10.040;2023-04-25T06:28:37;12.18;;;3.38;;
14665;SDS011;7420;53.574;10.040;2023-04-25T06:31:03;19.75;;;4.88;;
14665;SDS011;7420;53.574;10.040;2023-04-25T06:33:28;21.00;;;4.88;;
14665;SDS011;7420;53.574;10.040;2023-04-25T06:35:54;10.23;;;3.70;;
14665;SDS011;7420;53.574;10.040;2023-04-25T06:38:20;13.23;;;4.47;;
14665;SDS011;7420;53.574;10.040;2023-04-25T06:40:47;14.48;;;3.38;;
14665;SDS011;7420;53.574;10.040;2023-04-25T06:43:13;11.80;;;3.38;;
14665;SDS011;7420;53.574;10.040;2023-04-25T06:45:38;15.35;;;4.25;;
14665;SDS011;7420;53.574;10.040;2023-04-25T06:48:03;10.77;;;3.78;;
14665;SDS011;7420;53.574;10.040;2023-04-25T06:50:29;12.93;;;3.65;;
14665;SDS011;7420;53.574;10.040;2023-04-25T06:52:55;8.90;;;2.88;;
14665;SDS011;7420;53.574;10.040;2023-04-25T06:55:20;4.93;;;2.88;;
14665;SDS011;7420;53.574;10.040;2023-04-25T06:57:46;9.10;;;2.88;;
14665;SDS011;7420;53.574;10.040;2023-04-25T07:00:11;13.82;;;3.92;;
14665;SDS011;7420;53.574;10.040;2023-04-25T07:02:37;10.07;;;3.15;;
14665;SDS011;7420;53.574;10.040;2023-04-25T07:05:03;13.20;;;4.10;;
14665;SDS011;7420;53.574;10.040;2023-04-25T07:07:29;15.10;;;4.35;;
14665;SDS011;7420;53.574;10.040;2023-04-25T07:09:55;11.40;;;2.72;;
14665;SDS011;7420;53.574;10.040;2023-04-25T07:12:21;7.88;;;2.92;;
14665;SDS011;7420;53.574;10.040;2023-04-25T07:14:46;7.50;;;3.08;;
14665;SDS011;7420;53.574;10.040;2023-04-25T07:17:11;14.05;;;3.00;;
14665;SDS011;7420;53.574;10.040;2023-04-25T07:19:37;6.20;;;2.58;;
14665;SDS011;7420;53.574;10.040;2023-04-25T07:22:04;13.05;;;3.35;;
14665;SDS011;7420;53.574;10.040;2023-04-25T07:24:30;6.80;;;2.70;;
14665;SDS011;7420;53.574;10.040;2023-04-25T07:26:56;7.20;;;2.50;;
14665;SDS011;7420;53.574;10.040;2023-04-25T07:29:21;9.05;;;2.72;;
14665;SDS011;7420;53.574;10.040;2023-04-25T07:31:46;9.77;;;3.28;;
14665;SDS011;7420;53.574;10.040;2023-04-25T07:34:12;10.05;;;2.70;;
14665;SDS011;7420;53.574;10.040;2023-04-25T07:36:38;10.45;;;2.90;;
14665;SDS011;7420;53.574;10.040;2023-04-25T07:39:03;7.07;;;2.60;;
14665;SDS011;7420;53.574;10.040;2023-04-25T07:41:29;10.23;;;3.28;;
14665;SDS011;7420;53.574;10.040;2023-04-25T07:43:54;9.63;;;3.25;;
14665;SDS011;7420;53.574;10.040;2023-04-25T07:46:19;8.85;;;2.88;;
14665;SDS011;7420;53.574;10.040;2023-04-25T07:48:45;7.28;;;2.75;;
14665;SDS011;7420;53.574;10.040;2023-04-25T07:51:10;13.38;;;2.92;;
14665;SDS011;7420;53.574;10.040;2023-04-25T07:53:35;10.60;;;3.90;;
14665;SDS011;7420;53.574;10.040;2023-04-25T07:56:02;10.55;;;2.80;;
14665;SDS011;7420;53.574;10.040;2023-04-25T07:58:28;7.82;;;2.42;;
14665;SDS011;7420;53.574;10.040;2023-04-25T08:00:53;9.60;;;3.88;;
14665;SDS011;7420;53.574;10.040;2023-04-25T08:03:19;15.52;;;4.38;;
14665;SDS011;7420;53.574;10.040;2023-04-25T08:05:45;12.43;;;3.28;;
14665;SDS011;7420;53.574;10.040;2023-04-25T08:08:10;11.93;;;3.08;;
14665;SDS011;7420;53.574;10.040;2023-04-25T08:10:36;7.05;;;2.83;;
14665;SDS011;7420;53.574;10.040;2023-04-25T08:13:01;5.32;;;1.98;;
14665;SDS011;7420;53.574;10.040;2023-04-25T08:15:27;10.13;;;2.50;;
14665;SDS011;7420;53.574;10.040;2023-04-25T08:17:52;7.22;;;2.40;;
14665;SDS011;7420;53.574;10.040;2023-04-25T08:20:18;13.23;;;2.97;;
14665;SDS011;7420;53.574;10.040;2023-04-25T08:22:43;5.85;;;2.35;;
14665;SDS011;7420;53.574;10.040;2023-04-25T08:25:08;7.13;;;2.88;;
14665;SDS011;7420;53.574;10.040;2023-04-25T08:27:34;11.68;;;2.67;;
14665;SDS011;7420;53.574;10.040;2023-04-25T08:30:00;12.05;;;3.78;;
14665;SDS011;7420;53.574;10.040;2023-04-25T08:32:25;7.50;;;3.40;;
14665;SDS011;7420;53.574;10.040;2023-04-25T08:34:51;6.72;;;2.13;;
14665;SDS011;7420;53.574;10.040;2023-04-25T08:37:19;11.00;;;4.38;;
14665;SDS011;7420;53.574;10.040;2023-04-25T08:39:45;13.35;;;3.90;;
14665;SDS011;7420;53.574;10.040;2023-04-25T08:42:12;4.35;;;2.15;;
14665;SDS011;7420;53.574;10.040;2023-04-25T08:44:37;8.90;;;2.50;;
14665;SDS011;7420;53.574;10.040;2023-04-25T08:47:03;9.98;;;2.95;;
14665;SDS011;7420;53.574;10.040;2023-04-25T08:49:32;8.27;;;3.10;;
14665;SDS011;7420;53.574;10.040;2023-04-25T08:52:02;6.50;;;3.03;;
14665;SDS011;7420;53.574;10.040;2023-04-25T08:54:31;9.02;;;2.22;;
14665;SDS011;7420;53.574;10.040;2023-04-25T08:56:57;8.32;;;2.42;;
14665;SDS011;7420;53.574;10.040;2023-04-25T08:59:26;9.30;;;2.55;;
14665;SDS011;7420;53.574;10.040;2023-04-25T09:01:52;14.05;;;2.85;;
14665;SDS011;7420;53.574;10.040;2023-04-25T09:04:17;8.48;;;2.33;;
14665;SDS011;7420;53.574;10.040;2023-04-25T09:06:45;11.52;;;2.97;;
14665;SDS011;7420;53.574;10.040;2023-04-25T09:09:11;13.85;;;3.08;;
14665;SDS011;7420;53.574;10.040;2023-04-25T09:11:37;8.98;;;2.58;;
14665;SDS011;7420;53.574;10.040;2023-04-25T09:14:21;5.90;;;3.17;;
14665;SDS011;7420;53.574;10.040;2023-04-25T09:19:22;9.40;;;2.58;;
14665;SDS011;7420;53.574;10.040;2023-04-25T09:21:49;7.30;;;3.42;;
14665;SDS011;7420;53.574;10.040;2023-04-25T09:24:15;8.10;;;2.03;;
14665;SDS011;7420;53.574;10.040;2023-04-25T09:26:41;6.03;;;2.05;;
14665;SDS011;7420;53.574;10.040;2023-04-25T09:29:06;6.30;;;2.00;;
14665;SDS011;7420;53.574;10.040;2023-04-25T09:31:32;6.50;;;2.03;;
14665;SDS011;7420;53.574;10.040;2023-04-25T09:34:01;8.85;;;2.65;;
14665;SDS011;7420;53.574;10.040;2023-04-25T09:36:27;12.75;;;2.45;;
14665;SDS011;7420;53.574;10.040;2023-04-25T09:38:53;5.53;;;2.20;;
14665;SDS011;7420;53.574;10.040;2023-04-25T09:41:23;13.07;;;2.90;;
14665;SDS011;7420;53.574;10.040;2023-04-25T09:43:49;6.75;;;2.40;;
14665;SDS011;7420;53.574;10.040;2023-04-25T09:46:15;11.23;;;2.60;;
14665;SDS011;7420;53.574;10.040;2023-04-25T09:48:47;3.80;;;1.90;;
14665;SDS011;7420;53.574;10.040;2023-04-25T09:51:14;6.88;;;2.47;;
14665;SDS011;7420;53.574;10.040;2023-04-25T09:53:45;8.55;;;2.15;;
14665;SDS011;7420;53.574;10.040;2023-04-25T09:56:14;9.68;;;2.22;;
14665;SDS011;7420;53.574;10.040;2023-04-25T09:58:40;6.95;;;2.38;;
14665;SDS011;7420;53.574;10.040;2023-04-25T10:01:06;10.57;;;2.53;;
14665;SDS011;7420;53.574;10.040;2023-04-25T10:03:36;8.68;;;2.58;;
14665;SDS011;7420;53.574;10.040;2023-04-25T10:06:08;12.50;;;2.58;;
14665;SDS011;7420;53.574;10.040;2023-04-25T10:08:37;8.18;;;2.28;;
14665;SDS011;7420;53.574;10.040;2023-04-25T10:11:04;7.47;;;2.03;;
14665;SDS011;7420;53.574;10.040;2023-04-25T10:13:32;8.38;;;2.47;;
14665;SDS011;7420;53.574;10.040;2023-04-25T10:15:58;6.03;;;2.08;;
14665;SDS011;7420;53.574;10.040;2023-04-25T10:18:28;7.18;;;1.90;;
14665;SDS011;7420;53.574;10.040;2023-04-25T10:21:04;8.18;;;2.33;;
14665;SDS011;7420;53.574;10.040;2023-04-25T10:23:31;7.13;;;2.15;;
14665;SDS011;7420;53.574;10.040;2023-04-25T10:25:56;6.13;;;2.17;;
14665;SDS011;7420;53.574;10.040;2023-04-25T10:28:23;5.93;;;1.90;;
14665;SDS011;7420;53.574;10.040;2023-04-25T10:31:10;6.55;;;3.03;;
14665;SDS011;7420;53.574;10.040;2023-04-25T10:33:35;9.95;;;2.72;;
14665;SDS011;7420;53.574;10.040;2023-04-25T10:36:13;9.07;;;2.20;;
14665;SDS011;7420;53.574;10.040;2023-04-25T10:38:44;8.30;;;2.33;;
14665;SDS011;7420;53.574;10.040;2023-04-25T10:41:10;9.68;;;2.28;;
14665;SDS011;7420;53.574;10.040;2023-04-25T10:43:43;12.23;;;2.13;;
14665;SDS011;7420;53.574;10.040;2023-04-25T10:48:49;4.18;;;1.65;;
14665;SDS011;7420;53.574;10.040;2023-04-25T10:51:22;4.80;;;1.88;;
14665;SDS011;7420;53.574;10.040;2023-04-25T10:56:20;7.22;;;2.42;;
14665;SDS011;7420;53.574;10.040;2023-04-25T10:58:48;6.82;;;1.80;;
14665;SDS011;7420;53.574;10.040;2023-04-25T11:01:15;10.20;;;2.22;;
14665;SDS011;7420;53.574;10.040;2023-04-25T11:03:45;9.90;;;2.40;;
14665;SDS011;7420;53.574;10.040;2023-04-25T11:09:10;7.50;;;1.77;;
14665;SDS011;7420;53.574;10.040;2023-04-25T11:11:40;5.07;;;1.85;;
14665;SDS011;7420;53.574;10.040;2023-04-25T11:14:05;13.65;;;2.78;;
14665;SDS011;7420;53.574;10.040;2023-04-25T11:16:31;5.55;;;2.22;;
14665;SDS011;7420;53.574;10.040;2023-04-25T11:18:57;4.97;;;2.03;;
14665;SDS011;7420;53.574;10.040;2023-04-25T11:21:23;10.93;;;2.47;;
14665;SDS011;7420;53.574;10.040;2023-04-25T11:23:50;7.47;;;2.25;;
14665;SDS011;7420;53.574;10.040;2023-04-25T11:26:16;5.10;;;1.85;;
14665;SDS011;7420;53.574;10.040;2023-04-25T11:28:44;4.85;;;2.03;;
14665;SDS011;7420;53.574;10.040;2023-04-25T11:31:10;6.63;;;1.88;;
14665;SDS011;7420;53.574;10.040;2023-04-25T11:33:35;10.77;;;2.65;;
14665;SDS011;7420;53.574;10.040;2023-04-25T11:36:01;4.72;;;2.17;;
14665;SDS011;7420;53.574;10.040;2023-04-25T11:38:26;4.68;;;1.70;;
14665;SDS011;7420;53.574;10.040;2023-04-25T11:40:52;7.53;;;1.80;;
14665;SDS011;7420;53.574;10.040;2023-04-25T11:43:21;5.25;;;2.05;;
14665;SDS011;7420;53.574;10.040;2023-04-25T11:45:50;7.53;;;2.20;;
14665;SDS011;7420;53.574;10.040;2023-04-25T11:48:16;11.45;;;2.00;;
14665;SDS011;7420;53.574;10.040;2023-04-25T11:50:42;5.22;;;1.70;;
14665;SDS011;7420;53.574;10.040;2023-04-25T11:53:08;6.07;;;1.85;;
14665;SDS011;7420;53.574;10.040;2023-04-25T11:55:33;4.65;;;1.63;;
14665;SDS011;7420;53.574;10.040;2023-04-25T11:58:00;8.30;;;1.98;;
14665;SDS011;7420;53.574;10.040;2023-04-25T12:00:26;4.53;;;1.70;;
14665;SDS011;7420;53.574;10.040;2023-04-25T12:02:52;8.18;;;1.88;;
14665;SDS011;7420;53.574;10.040;2023-04-25T12:05:19;6.30;;;2.08;;
14665;SDS011;7420;53.574;10.040;2023-04-25T12:07:45;6.30;;;2.42;;
14665;SDS011;7420;53.574;10.040;2023-04-25T12:10:11;10.68;;;2.00;;
14665;SDS011;7420;53.574;10.040;2023-04-25T12:12:41;7.40;;;1.75;;
14665;SDS011;7420;53.574;10.040;2023-04-25T12:15:14;5.45;;;2.50;;
14665;SDS011;7420;53.574;10.040;2023-04-25T12:17:44;3.92;;;1.50;;
14665;SDS011;7420;53.574;10.040;2023-04-25T12:20:14;3.80;;;1.67;;
14665;SDS011;7420;53.574;10.040;2023-04-25T12:22:41;3.85;;;1.45;;
14665;SDS011;7420;53.574;10.040;2023-04-25T12:25:12;4.70;;;1.80;;
14665;SDS011;7420;53.574;10.040;2023-04-25T12:27:38;3.22;;;1.65;;
14665;SDS011;7420;53.574;10.040;2023-04-25T12:30:08;1.92;;;1.30;;
14665;SDS011;7420;53.574;10.040;2023-04-25T12:32:35;4.50;;;1.40;;
14665;SDS011;7420;53.574;10.040;2023-04-25T12:35:01;5.95;;;1.80;;
14665;SDS011;7420;53.574;10.040;2023-04-25T12:37:28;4.85;;;1.52;;
14665;SDS011;7420;53.574;10.040;2023-04-25T12:39:53;5.57;;;1.73;;
14665;SDS011;7420;53.574;10.040;2023-04-25T12:42:18;4.18;;;1.80;;
14665;SDS011;7420;53.574;10.040;2023-04-25T12:44:44;6.47;;;3.53;;
14665;SDS011;7420;53.574;10.040;2023-04-25T12:47:09;5.07;;;1.90;;
14665;SDS011;7420;53.574;10.040;2023-04-25T12:49:35;3.63;;;1.70;;
14665;SDS011;7420;53.574;10.040;2023-04-25T12:52:00;7.53;;;1.65;;
14665;SDS011;7420;53.574;10.040;2023-04-25T12:54:25;4.22;;;1.67;;
14665;SDS011;7420;53.574;10.040;2023-04-25T12:56:51;6.97;;;2.80;;
14665;SDS011;7420;53.574;10.040;2023-04-25T12:59:17;4.15;;;1.58;;
14665;SDS011;7420;53.574;10.040;2023-04-25T13:01:43;4.97;;;1.60;;
14665;SDS011;7420;53.574;10.040;2023-04-25T13:04:12;3.72;;;1.45;;
14665;SDS011;7420;53.574;10.040;2023-04-25T13:06:38;7.43;;;2.28;;
14665;SDS011;7420;53.574;10.040;2023-04-25T13:09:03;5.88;;;1.83;;
14665;SDS011;7420;53.574;10.040;2023-04-25T13:11:29;9.35;;;2.08;;
14665;SDS011;7420;53.574;10.040;2023-04-25T13:13:55;7.85;;;1.70;;
14665;SDS011;7420;53.574;10.040;2023-04-25T13:16:20;5.57;;;1.67;;
14665;SDS011;7420;53.574;10.040;2023-04-25T13:18:46;6.90;;;1.80;;
14665;SDS011;7420;53.574;10.040;2023-04-25T13:21:11;7.03;;;1.73;;
14665;SDS011;7420;53.574;10.040;2023-04-25T13:23:37;3.38;;;1.75;;
14665;SDS011;7420;53.574;10.040;2023-04-25T13:26:02;2.05;;;1.42;;
14665;SDS011;7420;53.574;10.040;2023-04-25T13:28:28;4.22;;;1.83;;
14665;SDS011;7420;53.574;10.040;2023-04-25T13:30:53;7.18;;;2.45;;
14665;SDS011;7420;53.574;10.040;2023-04-25T13:33:19;7.90;;;1.92;;
14665;SDS011;7420;53.574;10.040;2023-04-25T13:35:45;5.95;;;2.15;;
14665;SDS011;7420;53.574;10.040;2023-04-25T13:38:18;5.70;;;2.10;;
14665;SDS011;7420;53.574;10.040;2023-04-25T13:40:43;5.10;;;1.85;;
14665;SDS011;7420;53.574;10.040;2023-04-25T13:43:09;5.90;;;2.10;;
14665;SDS011;7420;53.574;10.040;2023-04-25T13:45:34;3.58;;;1.42;;
14665;SDS011;7420;53.574;10.040;2023-04-25T13:48:00;4.47;;;1.90;;
14665;SDS011;7420;53.574;10.040;2023-04-25T13:50:25;10.15;;;2.60;;
14665;SDS011;7420;53.574;10.040;2023-04-25T13:52:51;5.68;;;2.03;;
14665;SDS011;7420;53.574;10.040;2023-04-25T13:55:16;4.53;;;2.38;;
14665;SDS011;7420;53.574;10.040;2023-04-25T13:57:42;2.90;;;1.60;;
14665;SDS011;7420;53.574;10.040;2023-04-25T14:00:07;4.05;;;1.90;;
14665;SDS011;7420;53.574;10.040;2023-04-25T14:02:37;7.13;;;2.00;;
14665;SDS011;7420;53.574;10.040;2023-04-25T14:05:03;5.85;;;1.83;;
14665;SDS011;7420;53.574;10.040;2023-04-25T14:07:29;6.38;;;2.10;;
14665;SDS011;7420;53.574;10.040;2023-04-25T14:09:55;5.60;;;2.03;;
14665;SDS011;7420;53.574;10.040;2023-04-25T14:12:22;7.60;;;1.80;;
14665;SDS011;7420;53.574;10.040;2023-04-25T14:14:47;7.95;;;2.47;;
14665;SDS011;7420;53.574;10.040;2023-04-25T14:17:13;10.73;;;2.55;;
14665;SDS011;7420;53.574;10.040;2023-04-25T14:19:38;8.68;;;2.00;;
14665;SDS011;7420;53.574;10.040;2023-04-25T14:22:08;8.52;;;2.17;;
14665;SDS011;7420;53.574;10.040;2023-04-25T14:24:33;6.45;;;2.22;;
14665;SDS011;7420;53.574;10.040;2023-04-25T14:26:59;5.03;;;1.98;;
14665;SDS011;7420;53.574;10.040;2023-04-25T14:29:25;6.65;;;2.53;;
14665;SDS011;7420;53.574;10.040;2023-04-25T14:31:51;4.93;;;2.00;;
14665;SDS011;7420;53.574;10.040;2023-04-25T14:34:16;3.67;;;2.25;;
14665;SDS011;7420;53.574;10.040;2023-04-25T14:36:42;6.47;;;1.98;;
14665;SDS011;7420;53.574;10.040;2023-04-25T14:39:07;7.20;;;2.92;;
14665;SDS011;7420;53.574;10.040;2023-04-25T14:41:33;7.82;;;2.08;;
14665;SDS011;7420;53.574;10.040;2023-04-25T14:43:58;6.40;;;2.40;;
14665;SDS011;7420;53.574;10.040;2023-04-25T14:46:24;2.83;;;1.50;;
14665;SDS011;7420;53.574;10.040;2023-04-25T14:48:49;5.45;;;1.70;;
14665;SDS011;7420;53.574;10.040;2023-04-25T14:51:15;8.02;;;2.10;;
14665;SDS011;7420;53.574;10.040;2023-04-25T14:53:40;4.60;;;2.08;;
14665;SDS011;7420;53.574;10.040;2023-04-25T14:56:06;5.13;;;2.00;;
14665;SDS011;7420;53.574;10.040;2023-04-25T14:58:32;5.15;;;1.60;;
14665;SDS011;7420;53.574;10.040;2023-04-25T15:01:18;5.80;;;1.60;;
14665;SDS011;7420;53.574;10.040;2023-04-25T15:03:45;4.85;;;1.83;;
14665;SDS011;7420;53.574;10.040;2023-04-25T15:06:11;3.78;;;1.48;;
14665;SDS011;7420;53.574;10.040;2023-04-25T15:08:36;5.10;;;1.73;;
14665;SDS011;7420;53.574;10.040;2023-04-25T15:11:01;6.32;;;1.70;;
14665;SDS011;7420;53.574;10.040;2023-04-25T15:13:27;10.77;;;2.58;;